Time;durP1;ratioP1;P1;durP2;ratioP2;P2;SDS_P1;SDS_P2;PMS_P1;PMS_P2;Temp;Humidity;BMP_temperature;BMP_pressure;BME280_temperature;BME280_humidity;BME280_pressure;Samples;Min_cycle;Max_cycle;Signal;HPM_P1;HPM_P2
2022/08/14 00:00:20;;;;;;;21.13;12.07;;;;;;;27.53;79.28;101033.91;5068902;28;20021;-52
2022/08/14 00:02:46;;;;;;;144.97;71.10;;;;;;;27.50;79.94;101029.00;5069652;28;20036;-56
2022/08/14 00:05:14;;;;;;;81.27;41.57;;;;;;;27.49;80.68;101028.16;5069192;28;20039;-52
2022/08/14 00:07:39;;;;;;;14.67;7.60;;;;;;;27.46;81.45;101020.56;5071558;28;20048;-52
2022/08/14 00:10:06;;;;;;;;;;;;;;;27.40;83.56;101026.44;5070302;28;20036;-50
2022/08/14 00:12:36;;;;;;;8.93;6.03;;;;;;;27.33;84.61;101021.34;5067956;28;19943;-54
2022/08/14 00:15:05;;;;;;;9.87;5.10;;;;;;;27.25;85.27;101017.41;5073832;28;20044;-50
2022/08/14 00:17:31;;;;;;;13.07;5.10;;;;;;;27.12;87.15;101015.47;5066731;28;20055;-53
2022/08/14 00:19:56;;;;;;;;;;;;;;;27.13;87.92;101023.41;5072650;28;20049;-54
2022/08/14 00:22:22;;;;;;;14.23;6.07;;;;;;;27.13;88.85;101019.84;5072681;28;19935;-52
2022/08/14 00:24:48;;;;;;;;;;;;;;;26.97;90.70;101011.88;5072830;28;20033;-49
2022/08/14 00:27:13;;;;;;;9.80;5.00;;;;;;;27.00;90.65;101013.22;5076930;28;19948;-54
2022/08/14 00:29:39;;;;;;;;;;;;;;;26.93;92.83;101002.63;5074760;28;20037;-56
2022/08/14 00:32:05;;;;;;;10.10;4.27;;;;;;;26.95;93.74;101003.16;5074124;28;19912;-53
2022/08/14 00:34:30;;;;;;;10.00;4.67;;;;;;;26.82;95.60;100993.75;5076091;28;20044;-56
2022/08/14 00:36:56;;;;;;;;;;;;;;;26.87;97.02;100996.44;5073726;28;20045;-55
2022/08/14 00:39:22;;;;;;;7.17;4.73;;;;;;;26.90;96.95;101000.50;5072009;28;19971;-54
2022/08/14 00:41:49;;;;;;;9.40;4.83;;;;;;;26.89;98.86;100994.22;5071479;28;20041;-55
2022/08/14 00:44:15;;;;;;;11.13;5.40;;;;;;;26.77;100.00;100991.94;5073538;28;20037;-54
2022/08/14 00:46:41;;;;;;;14.93;5.23;;;;;;;26.76;100.00;100987.56;5073640;28;20044;-53
2022/08/14 00:49:07;;;;;;;;;;;;;;;26.75;100.00;100985.09;5074727;28;20025;-52
2022/08/14 00:51:33;;;;;;;9.77;5.27;;;;;;;26.57;100.00;100982.13;5073877;28;19976;-50
2022/08/14 00:53:59;;;;;;;;;;;;;;;26.57;100.00;100978.56;5072325;28;20034;-52
2022/08/14 00:56:25;;;;;;;8.63;4.68;;;;;;;26.49;100.00;100975.38;5076613;28;19952;-53
2022/08/14 00:58:51;;;;;;;;;;;;;;;26.52;100.00;100971.25;5073176;28;20056;-54
2022/08/14 01:01:18;;;;;;;10.77;5.10;;;;;;;26.61;100.00;100982.34;5077206;28;19944;-53
2022/08/14 01:03:44;;;;;;;12.07;5.13;;;;;;;26.40;100.00;100966.22;5079225;28;20051;-53
2022/08/14 01:06:15;;;;;;;15.37;6.23;;;;;;;26.59;100.00;100962.63;5070940;28;20056;-56
2022/08/14 01:08:43;;;;;;;8.27;5.37;;;;;;;26.26;100.00;100979.06;5074513;28;20088;-54
2022/08/14 01:11:14;;;;;;;9.47;5.77;;;;;;;26.25;100.00;100966.47;5076295;28;20062;-51
2022/08/14 01:13:42;;;;;;;15.57;5.53;;;;;;;26.12;100.00;100965.28;5072515;28;20037;-53
2022/08/14 01:16:13;;;;;;;13.87;6.67;;;;;;;25.93;100.00;100966.09;5072534;28;20040;-51
2022/08/14 01:21:33;;;;;;;12.37;6.97;;;;;;;25.94;100.00;100959.50;5074160;28;20028;-55
2022/08/14 01:23:59;;;;;;;9.25;6.15;;;;;;;25.80;100.00;100945.75;5071407;28;20520;-55
2022/08/14 01:26:25;;;;;;;;;;;;;;;25.77;100.00;100943.59;5078045;28;20033;-53
2022/08/14 01:28:56;;;;;;;8.33;6.00;;;;;;;25.77;100.00;100938.97;5070235;28;19935;-55
2022/08/14 01:31:25;;;;;;;16.47;5.97;;;;;;;25.85;100.00;100940.22;5073629;28;20024;-53
2022/08/14 01:33:55;;;;;;;9.37;5.97;;;;;;;25.91;100.00;100940.94;5069498;28;20029;-56
2022/08/14 01:36:23;;;;;;;10.97;6.20;;;;;;;25.92;100.00;100937.91;5071166;28;20051;-52
2022/08/14 01:38:50;;;;;;;15.00;6.80;;;;;;;25.86;100.00;100938.28;5073704;28;20028;-53
2022/08/14 01:41:20;;;;;;;12.80;5.83;;;;;;;25.79;100.00;100935.91;5076598;28;20031;-54
2022/08/14 01:43:52;;;;;;;15.93;6.40;;;;;;;25.73;100.00;100931.63;5069956;28;20146;-55
2022/08/14 01:46:22;;;;;;;10.50;5.70;;;;;;;25.61;100.00;100929.31;5076822;28;20032;-53
2022/08/14 01:48:51;;;;;;;14.93;6.20;;;;;;;25.66;100.00;100929.25;5074183;28;20024;-56
2022/08/14 01:51:23;;;;;;;11.00;5.97;;;;;;;25.71;100.00;100931.09;5073257;28;20036;-55
2022/08/14 01:53:56;;;;;;;9.33;6.20;;;;;;;25.58;100.00;100921.72;5069995;28;20036;-52
2022/08/14 01:56:41;;;;;;;11.90;6.33;;;;;;;25.58;100.00;100927.97;5072128;28;20055;-52
2022/08/14 01:59:18;;;;;;;9.60;5.90;;;;;;;25.62;100.00;100923.56;5069038;28;20040;-54
2022/08/14 02:01:46;;;;;;;10.93;6.20;;;;;;;25.64;100.00;100926.00;5071262;28;20044;-54
2022/08/14 02:04:11;;;;;;;8.30;5.80;;;;;;;25.62;100.00;100926.31;5071380;28;20021;-54
2022/08/14 02:06:37;;;;;;;8.13;6.10;;;;;;;25.72;100.00;100925.34;5069922;28;20037;-53
2022/08/14 02:09:04;;;;;;;14.02;6.47;;;;;;;25.67;100.00;100928.13;5071084;28;20059;-52
2022/08/14 02:11:30;;;;;;;9.13;6.13;;;;;;;25.66;100.00;100926.50;5072142;28;20110;-53
2022/08/14 02:14:03;;;;;;;8.77;6.07;;;;;;;25.66;100.00;100920.25;5075610;28;20024;-53
2022/08/14 02:16:31;;;;;;;13.23;7.03;;;;;;;25.62;100.00;100925.47;5073634;28;20040;-52
2022/08/14 02:18:59;;;;;;;13.73;5.47;;;;;;;25.55;100.00;100916.81;5080012;28;20019;-53
2022/08/14 02:21:27;;;;;;;10.40;6.37;;;;;;;25.55;100.00;100919.56;5076291;28;20047;-54
2022/08/14 02:23:54;;;;;;;10.77;6.20;;;;;;;25.90;100.00;100926.44;5068661;28;20043;-55
2022/08/14 02:26:26;;;;;;;9.97;6.63;;;;;;;25.55;100.00;100920.38;5072419;28;20043;-53
2022/08/14 02:28:58;;;;;;;9.00;6.47;;;;;;;25.52;100.00;100920.16;5074140;28;20097;-49
2022/08/14 02:31:34;;;;;;;7.53;5.83;;;;;;;25.61;100.00;100919.22;5070573;28;20063;-53
2022/08/14 02:34:03;;;;;;;7.70;5.80;;;;;;;25.54;100.00;100918.75;5068950;28;20044;-56
2022/08/14 02:36:28;;;;;;;11.00;5.80;;;;;;;25.47;100.00;100918.31;5077796;28;20109;-53
2022/08/14 02:38:54;;;;;;;10.32;6.10;;;;;;;25.39;100.00;100921.66;5071362;28;20093;-50
2022/08/14 02:41:19;;;;;;;13.43;6.25;;;;;;;25.41;100.00;100919.44;5075355;28;20033;-55
2022/08/14 02:43:45;;;;;;;10.63;6.05;;;;;;;25.32;100.00;100916.56;5070735;28;20044;-53
2022/08/14 02:46:11;;;;;;;12.53;6.60;;;;;;;25.34;100.00;100920.59;5069861;28;20067;-53
2022/08/14 02:48:41;;;;;;;9.90;6.23;;;;;;;25.32;100.00;100925.56;5070436;28;20092;-53
2022/08/14 02:51:12;;;;;;;13.47;6.57;;;;;;;25.30;100.00;100919.56;5070670;28;20029;-53
2022/08/14 02:53:44;;;;;;;10.77;6.47;;;;;;;25.16;100.00;100918.69;5070184;28;20071;-54
2022/08/14 02:56:14;;;;;;;10.10;6.70;;;;;;;25.07;100.00;100910.28;5069860;28;20029;-52
2022/08/14 02:58:43;;;;;;;16.90;7.73;;;;;;;25.12;100.00;100906.66;5071057;28;20032;-50
2022/08/14 03:01:09;;;;;;;11.00;7.00;;;;;;;25.02;100.00;100902.97;5071450;28;20044;-50
2022/08/14 03:03:36;;;;;;;11.70;6.72;;;;;;;24.98;100.00;100901.91;5072031;28;20089;-52
2022/08/14 03:06:04;;;;;;;10.57;7.27;;;;;;;24.97;100.00;100911.22;5073550;28;20037;-54
2022/08/14 03:08:32;;;;;;;15.00;8.20;;;;;;;24.90;100.00;100905.28;5073219;28;20044;-53
2022/08/14 03:11:05;;;;;;;17.53;7.83;;;;;;;24.92;100.00;100900.34;5070639;28;20021;-56
2022/08/14 03:13:46;;;;;;;12.43;7.50;;;;;;;24.95;100.00;100907.97;5069531;28;20098;-52
2022/08/14 03:16:15;;;;;;;11.90;7.83;;;;;;;24.94;100.00;100905.53;5070414;28;20033;-56
2022/08/14 03:18:44;;;;;;;11.90;7.53;;;;;;;24.94;100.00;100906.34;5076606;28;20123;-51
2022/08/14 03:21:17;;;;;;;11.00;8.17;;;;;;;24.90;100.00;100902.53;5070060;28;20096;-54
2022/08/14 03:23:46;;;;;;;12.90;7.73;;;;;;;24.89;100.00;100906.38;5067162;28;20045;-53
2022/08/14 03:26:14;;;;;;;9.17;6.70;;;;;;;24.81;100.00;100891.44;5073874;28;20040;-54
2022/08/14 03:28:42;;;;;;;12.73;7.43;;;;;;;24.80;100.00;100899.94;5071264;28;20028;-52
2022/08/14 03:31:09;;;;;;;11.80;7.20;;;;;;;24.69;100.00;100896.47;5075060;28;20037;-53
2022/08/14 03:33:36;;;;;;;9.90;7.40;;;;;;;24.73;100.00;100895.59;5072710;28;20033;-54
2022/08/14 03:36:11;;;;;;;11.17;7.80;;;;;;;24.62;100.00;100889.44;5068632;28;20033;-53
2022/08/14 03:38:41;;;;;;;11.43;7.40;;;;;;;24.38;100.00;100883.13;5069095;28;20041;-53
2022/08/14 03:41:20;;;;;;;13.47;7.80;;;;;;;24.34;100.00;100882.88;5073380;28;20056;-52
2022/08/14 03:43:49;;;;;;;17.10;8.43;;;;;;;24.31;100.00;100877.97;5072681;28;20037;-54
2022/08/14 03:46:16;;;;;;;16.83;8.30;;;;;;;24.25;100.00;100885.41;5073118;28;20029;-53
2022/08/14 03:48:43;;;;;;;12.63;8.03;;;;;;;24.08;100.00;100883.09;5070475;28;20049;-54
2022/08/14 03:51:10;;;;;;;11.03;8.67;;;;;;;24.12;100.00;100883.34;5073063;28;20037;-53
2022/08/14 03:53:40;;;;;;;10.87;7.77;;;;;;;24.19;100.00;100887.34;5074843;28;20029;-53
2022/08/14 03:56:13;;;;;;;12.27;8.63;;;;;;;24.12;100.00;100889.63;5076411;28;20084;-53
2022/08/14 03:58:48;;;;;;;15.27;7.90;;;;;;;24.03;100.00;100883.16;5071121;28;20033;-55
2022/08/14 04:01:18;;;;;;;12.03;7.63;;;;;;;24.02;100.00;100882.31;5068575;28;20037;-53
2022/08/14 04:03:45;;;;;;;15.70;8.77;;;;;;;23.97;100.00;100885.06;5067348;28;20033;-52
2022/08/14 04:06:11;;;;;;;13.57;8.67;;;;;;;23.92;100.00;100882.38;5067985;28;20053;-53
2022/08/14 04:08:38;;;;;;;16.95;11.77;;;;;;;23.95;100.00;100886.44;5070604;28;20052;-55
2022/08/14 04:11:05;;;;;;;14.73;8.73;;;;;;;23.87;100.00;100880.50;5073298;28;20096;-53
2022/08/14 04:13:34;;;;;;;14.47;9.80;;;;;;;23.84;100.00;100877.50;5070331;28;20041;-51
2022/08/14 04:16:05;;;;;;;13.03;9.20;;;;;;;23.75;100.00;100877.28;5073795;28;20033;-50
2022/08/14 04:18:32;;;;;;;16.20;9.23;;;;;;;23.81;100.00;100878.91;5074652;28;20033;-54
2022/08/14 04:20:57;;;;;;;24.42;9.45;;;;;;;23.85;100.00;100877.22;5076071;28;20045;-51
2022/08/14 04:23:24;;;;;;;13.98;9.93;;;;;;;23.83;100.00;100876.72;5074537;28;20044;-52
2022/08/14 04:25:53;;;;;;;29.93;8.67;;;;;;;23.72;100.00;100875.13;5074769;28;20039;-53
2022/08/14 04:28:20;;;;;;;16.30;10.73;;;;;;;23.74;100.00;100870.19;5070182;28;20037;-54
2022/08/14 04:30:46;;;;;;;13.13;9.13;;;;;;;23.69;100.00;100867.50;5072128;28;20089;-55
2022/08/14 04:33:13;;;;;;;11.43;9.05;;;;;;;23.78;100.00;100871.28;5071641;28;20040;-52
2022/08/14 04:35:39;;;;;;;15.23;9.77;;;;;;;23.69;100.00;100868.34;5071112;28;20043;-54
2022/08/14 04:43:38;;;;;;;19.67;11.83;;;;;;;23.82;100.00;100872.34;5073385;28;20096;-54
2022/08/14 04:46:13;;;;;;;22.70;11.83;;;;;;;23.69;100.00;100872.97;5076721;28;20033;-54
2022/08/14 04:48:40;;;;;;;20.67;11.73;;;;;;;23.69;100.00;100859.31;5076591;28;20029;-54
2022/08/14 04:51:11;;;;;;;17.70;11.33;;;;;;;23.70;100.00;100858.22;5070216;28;20029;-56
2022/08/14 04:53:42;;;;;;;18.50;11.20;;;;;;;23.71;100.00;100859.84;5068190;28;20040;-55
2022/08/14 04:56:09;;;;;;;15.13;10.77;;;;;;;23.89;100.00;100859.19;5069300;28;20052;-52
2022/08/14 04:58:35;;;;;;;22.87;14.10;;;;;;;23.88;100.00;100860.28;5072338;28;20092;-51
2022/08/14 05:01:04;;;;;;;;;;;;;;;23.91;100.00;100854.25;5077221;28;20032;-51
2022/08/14 05:03:33;;;;;;;19.33;13.23;;;;;;;23.95;100.00;100853.66;5070234;28;19913;-55
2022/08/14 05:06:01;;;;;;;20.83;14.67;;;;;;;23.96;100.00;100861.59;5077328;28;20029;-54
2022/08/14 05:08:28;;;;;;;18.77;11.73;;;;;;;24.03;100.00;100847.63;5076541;28;20035;-52
2022/08/14 05:10:56;;;;;;;20.10;12.97;;;;;;;24.04;100.00;100850.06;5072042;28;20032;-51
2022/08/14 05:13:24;;;;;;;22.87;13.07;;;;;;;23.90;100.00;100843.63;5073149;28;20024;-53
2022/08/14 05:15:52;;;;;;;19.00;11.60;;;;;;;23.99;100.00;100843.78;5068763;28;20033;-53
2022/08/14 05:18:23;;;;;;;17.53;10.30;;;;;;;24.11;100.00;100838.81;5074301;28;20075;-54
2022/08/14 05:20:51;;;;;;;16.67;10.47;;;;;;;24.09;100.00;100842.91;5074464;28;20096;-55
2022/08/14 05:23:21;;;;;;;20.37;11.93;;;;;;;24.18;100.00;100841.22;5075824;28;20032;-53
2022/08/14 05:25:50;;;;;;;17.87;10.90;;;;;;;24.07;100.00;100840.50;5072493;28;20044;-51
2022/08/14 05:28:18;;;;;;;20.57;11.40;;;;;;;24.11;100.00;100833.34;5069487;28;20025;-54
2022/08/14 05:30:50;;;;;;;15.27;9.77;;;;;;;24.20;100.00;100839.81;5070928;28;20037;-55
2022/08/14 05:33:18;;;;;;;22.87;10.63;;;;;;;24.27;100.00;100836.75;5073057;28;20036;-55
2022/08/14 05:35:45;;;;;;;17.57;10.43;;;;;;;24.14;100.00;100835.50;5073207;28;20035;-57
2022/08/14 05:38:15;;;;;;;15.40;9.57;;;;;;;24.11;100.00;100833.34;5075867;28;20028;-54
2022/08/14 05:40:42;;;;;;;14.00;10.50;;;;;;;24.19;100.00;100829.97;5072007;28;20036;-54
2022/08/14 05:43:09;;;;;;;17.63;10.50;;;;;;;24.34;100.00;100839.97;5073035;28;20061;-52
2022/08/14 05:45:36;;;;;;;17.17;10.43;;;;;;;24.36;100.00;100844.34;5068933;28;20040;-54
2022/08/14 05:48:03;;;;;;;12.73;10.13;;;;;;;24.40;100.00;100835.25;5073451;28;20047;-54
2022/08/14 05:50:28;;;;;;;15.77;10.17;;;;;;;24.32;100.00;100833.97;5070841;28;20030;-56
2022/08/14 05:52:54;;;;;;;25.20;13.07;;;;;;;24.39;100.00;100833.63;5068912;28;20033;-56
2022/08/14 05:55:20;;;;;;;20.10;11.95;;;;;;;24.29;100.00;100836.47;5070776;28;20033;-53
2022/08/14 05:57:59;;;;;;;16.03;11.10;;;;;;;24.47;100.00;100838.47;5079552;28;20035;-52
2022/08/14 06:00:29;;;;;;;18.57;11.40;;;;;;;24.58;100.00;100830.97;5074447;28;20048;-54
2022/08/14 06:02:55;;;;;;;17.90;10.97;;;;;;;24.56;100.00;100838.63;5075065;28;20051;-55
2022/08/14 06:05:22;;;;;;;17.90;10.43;;;;;;;24.59;100.00;100829.03;5071793;28;20047;-54
2022/08/14 06:07:48;;;;;;;14.73;11.63;;;;;;;24.61;100.00;100832.28;5069652;28;20029;-52
2022/08/14 06:10:13;;;;;;;15.75;11.27;;;;;;;24.83;100.00;100834.53;5067935;28;20029;-55
2022/08/14 06:12:39;;;;;;;16.80;9.90;;;;;;;24.80;100.00;100828.84;5070696;28;20105;-54
2022/08/14 06:15:06;;;;;;;15.52;10.38;;;;;;;24.67;100.00;100830.31;5068867;28;20034;-52
2022/08/14 06:17:42;;;;;;;16.93;10.43;;;;;;;24.75;100.00;100830.53;5069176;28;20103;-55
2022/08/14 06:20:09;;;;;;;14.50;9.98;;;;;;;24.83;100.00;100833.72;5069983;28;20052;-55
2022/08/14 06:22:35;;;;;;;17.63;10.10;;;;;;;24.87;100.00;100834.75;5074354;28;20045;-52
2022/08/14 06:25:00;;;;;;;11.20;7.97;;;;;;;24.91;100.00;100833.06;5071234;28;20032;-52
2022/08/14 06:27:26;;;;;;;13.65;9.95;;;;;;;25.02;100.00;100836.47;5071097;28;20039;-56
2022/08/14 06:29:51;;;;;;;15.82;10.20;;;;;;;25.01;100.00;100832.13;5072171;28;20056;-54
2022/08/14 06:32:16;;;;;;;14.63;10.73;;;;;;;25.26;100.00;100841.91;5071986;28;20079;-56
2022/08/14 06:34:42;;;;;;;15.55;10.23;;;;;;;25.46;100.00;100835.31;5075116;28;20037;-53
2022/08/14 06:37:08;;;;;;;15.80;10.52;;;;;;;25.58;100.00;100831.34;5071082;28;20040;-54
2022/08/14 06:39:33;;;;;;;15.25;9.57;;;;;;;25.60;100.00;100832.69;5069661;28;20083;-55
2022/08/14 06:41:59;;;;;;;15.02;9.75;;;;;;;25.71;100.00;100836.06;5069343;28;20036;-56
2022/08/14 06:44:25;;;;;;;16.85;10.18;;;;;;;25.88;100.00;100823.75;5069814;28;20041;-57
2022/08/14 06:46:50;;;;;;;13.00;9.50;;;;;;;25.86;100.00;100836.94;5072837;28;20047;-53
2022/08/14 06:49:16;;;;;;;13.23;8.93;;;;;;;25.98;100.00;100837.28;5069128;28;20041;-55
2022/08/14 06:51:45;;;;;;;16.73;8.55;;;;;;;25.98;100.00;100833.72;5072594;28;20040;-55
2022/08/14 06:54:12;;;;;;;14.47;8.53;;;;;;;26.03;100.00;100833.63;5071906;28;20109;-54
2022/08/14 06:56:38;;;;;;;13.30;8.27;;;;;;;26.09;100.00;100832.44;5072787;28;20036;-53
2022/08/14 06:59:04;;;;;;;13.93;8.97;;;;;;;26.11;100.00;100829.38;5070781;28;20028;-55
2022/08/14 07:07:00;;;;;;;14.67;8.40;;;;;;;26.34;100.00;100813.94;5066845;28;20037;-55
2022/08/14 07:09:27;;;;;;;;;;;;;;;26.38;100.00;100809.47;5068489;28;20091;-56
2022/08/14 07:11:52;;;;;;;13.48;8.52;;;;;;;26.46;100.00;100814.22;5071153;28;19958;-56
2022/08/14 07:14:18;;;;;;;;;;;;;;;26.36;100.00;100808.13;5072233;28;20037;-52
2022/08/14 07:16:44;;;;;;;16.37;9.37;;;;;;;26.41;100.00;100814.34;5071810;28;19913;-55
2022/08/14 07:19:09;;;;;;;;;;;;;;;26.49;100.00;100810.88;5074612;28;20032;-56
2022/08/14 07:21:36;;;;;;;13.77;9.23;;;;;;;26.48;100.00;100806.50;5071782;28;19913;-57
2022/08/14 07:24:02;;;;;;;14.07;8.37;;;;;;;26.46;100.00;100818.91;5070193;28;20033;-54
2022/08/14 07:26:28;;;;;;;12.80;9.70;;;;;;;26.49;100.00;100821.03;5064414;28;20096;-54
2022/08/14 07:28:54;;;;;;;11.53;8.00;;;;;;;26.45;100.00;100809.88;5065141;28;20033;-54
2022/08/14 07:31:19;;;;;;;;;;;;;;;26.43;100.00;100817.59;5068854;28;20054;-52
2022/08/14 07:33:50;;;;;;;14.57;9.47;;;;;;;26.44;100.00;100804.72;5070736;28;19932;-56
2022/08/14 07:36:17;;;;;;;15.20;9.30;;;;;;;26.47;100.00;100804.88;5067531;28;20101;-53
2022/08/14 07:38:43;;;;;;;10.17;7.43;;;;;;;26.60;100.00;100807.94;5068605;28;20037;-53
2022/08/14 07:41:09;;;;;;;;;;;;;;;26.61;100.00;100815.06;5054666;28;20067;-54
2022/08/14 07:43:36;;;;;;;11.57;7.20;;;;;;;26.67;100.00;100813.03;5075212;28;19917;-56
2022/08/14 07:46:03;;;;;;;13.53;8.80;;;;;;;26.73;100.00;100815.34;5071390;28;20033;-54
2022/08/14 07:48:29;;;;;;;21.10;10.37;;;;;;;26.85;100.00;100812.09;5074957;28;20036;-55
2022/08/14 07:50:54;;;;;;;;;;;;;;;26.83;100.00;100814.31;5072314;28;20035;-55
2022/08/14 07:53:20;;;;;;;11.53;8.87;;;;;;;27.05;100.00;100812.78;5075954;28;19975;-55
2022/08/14 07:55:47;;;;;;;13.13;7.90;;;;;;;27.08;100.00;100814.91;5073503;28;20040;-55
2022/08/14 07:58:14;;;;;;;14.67;9.97;;;;;;;26.98;100.00;100813.19;5078020;28;20037;-55
2022/08/14 08:00:41;;;;;;;16.17;10.53;;;;;;;27.08;100.00;100808.63;5072406;28;20041;-53
2022/08/14 08:03:08;;;;;;;14.20;7.70;;;;;;;27.15;100.00;100804.34;5073331;28;20029;-57
2022/08/14 08:05:36;;;;;;;13.40;9.73;;;;;;;27.34;100.00;100808.88;5076346;28;20025;-54
2022/08/14 08:08:03;;;;;;;11.30;8.77;;;;;;;27.47;100.00;100807.19;5076186;28;20052;-53
2022/08/14 08:10:30;;;;;;;12.30;9.43;;;;;;;27.59;100.00;100803.91;5074490;28;20037;-51
2022/08/14 08:13:07;;;;;;;15.03;9.73;;;;;;;27.67;100.00;100805.06;5074578;28;20041;-50
2022/08/14 08:15:35;;;;;;;18.87;8.87;;;;;;;27.58;100.00;100794.06;5069827;28;20028;-50
2022/08/14 08:18:03;;;;;;;14.33;9.23;;;;;;;27.52;100.00;100792.53;5066040;28;20035;-48
2022/08/14 08:20:40;;;;;;;14.57;9.03;;;;;;;27.68;100.00;100795.72;5063798;28;20033;-49
2022/08/14 08:23:07;;;;;;;13.23;8.50;;;;;;;27.81;100.00;100789.34;5065225;28;20090;-49
2022/08/14 08:25:38;;;;;;;13.27;9.20;;;;;;;27.96;100.00;100792.81;5067505;28;20033;-51
2022/08/14 08:28:07;;;;;;;14.60;8.80;;;;;;;28.07;100.00;100785.91;5071384;28;20045;-51
2022/08/14 08:30:36;;;;;;;13.93;8.37;;;;;;;28.14;100.00;100783.53;5070369;28;20088;-49
2022/08/14 08:33:04;;;;;;;17.33;8.43;;;;;;;28.25;100.00;100788.78;5074236;28;20060;-49
2022/08/14 08:35:34;;;;;;;12.47;8.00;;;;;;;28.34;100.00;100797.88;5068971;28;20047;-47
2022/08/14 08:38:13;;;;;;;12.97;8.13;;;;;;;28.71;100.00;100797.66;5072408;28;20041;-46
2022/08/14 08:40:41;;;;;;;13.07;6.93;;;;;;;28.75;100.00;100798.66;5072300;28;20104;-46
2022/08/14 08:43:18;;;;;;;13.57;8.10;;;;;;;28.75;100.00;100807.69;5070035;28;20037;-48
2022/08/14 08:45:54;;;;;;;14.73;7.80;;;;;;;28.87;100.00;100801.59;5066444;28;20040;-51
2022/08/14 08:48:19;;;;;;;11.40;7.40;;;;;;;28.87;100.00;100806.31;5068977;28;20040;-47
2022/08/14 08:50:44;;;;;;;11.83;7.93;;;;;;;29.01;100.00;100804.22;5066312;28;20035;-51
2022/08/14 08:53:10;;;;;;;14.33;8.43;;;;;;;29.32;100.00;100806.03;5070300;28;20051;-50
2022/08/14 08:55:41;;;;;;;10.13;7.13;;;;;;;29.44;100.00;100796.31;5064613;28;20044;-50
2022/08/14 08:58:09;;;;;;;10.70;7.33;;;;;;;29.57;100.00;100794.50;5070463;28;20036;-50
2022/08/14 09:00:36;;;;;;;12.30;7.90;;;;;;;29.67;100.00;100798.88;5067133;28;20037;-47
2022/08/14 09:03:05;;;;;;;11.20;7.37;;;;;;;29.75;100.00;100782.31;5067932;28;20043;-46
2022/08/14 09:05:34;;;;;;;11.63;7.22;;;;;;;29.92;100.00;100783.44;5071227;28;20039;-48
2022/08/14 09:08:17;;;;;;;10.35;7.90;;;;;;;30.01;100.00;100786.16;5071355;28;20037;-46
2022/08/14 09:10:44;;;;;;;14.80;8.95;;;;;;;30.07;100.00;100787.63;5070178;28;20029;-48
2022/08/14 09:13:11;;;;;;;10.15;7.55;;;;;;;30.25;100.00;100790.31;5077902;28;20096;-52
2022/08/14 09:15:39;;;;;;;14.40;7.13;;;;;;;30.31;100.00;100786.22;5072021;28;20029;-47
2022/08/14 09:18:06;;;;;;;13.20;7.00;;;;;;;30.57;100.00;100783.34;5070406;28;20033;-47
2022/08/14 09:20:32;;;;;;;10.30;7.55;;;;;;;30.80;100.00;100780.28;5076322;28;20051;-46
2022/08/14 09:22:58;;;;;;;10.32;6.07;;;;;;;31.07;97.99;100788.38;5073410;28;20028;-48
2022/08/14 09:25:24;;;;;;;12.20;6.53;;;;;;;31.31;96.34;100785.75;5080208;28;20040;-49
2022/08/14 09:27:49;;;;;;;9.88;6.63;;;;;;;31.78;93.60;100783.84;5077238;28;20029;-47
2022/08/14 09:30:15;;;;;;;11.93;6.53;;;;;;;32.17;88.46;100784.38;5067911;28;20060;-52
2022/08/14 09:33:19;;;;;;;14.63;6.50;;;;;;;32.85;84.24;100784.91;5069532;28;20039;-49
2022/08/14 09:36:20;;;;;;;9.38;6.28;;;;;;;33.59;77.64;100788.63;5061259;28;20070;-46
2022/08/14 09:38:56;;;;;;;13.40;6.70;;;;;;;34.06;74.24;100784.28;5069140;28;20029;-46
2022/08/14 09:41:48;;;;;;;12.82;6.00;;;;;;;34.55;69.22;100777.56;5072597;28;20097;-48
2022/08/14 09:44:40;;;;;;;11.68;6.10;;;;;;;35.11;63.87;100780.34;5066180;28;20045;-50
2022/08/14 09:47:06;;;;;;;13.70;8.63;;;;;;;35.60;63.08;100774.16;5069950;28;20043;-51
2022/08/14 09:49:37;;;;;;;14.90;9.30;;;;;;;36.24;58.66;100774.84;5072293;28;20047;-46
2022/08/14 09:52:05;;;;;;;10.15;6.85;;;;;;;36.49;56.00;100766.06;5071784;28;20028;-49
2022/08/14 09:54:43;;;;;;;9.60;6.05;;;;;;;37.02;53.58;100766.00;5067466;28;20033;-51
2022/08/14 09:57:12;;;;;;;10.63;6.10;;;;;;;37.43;51.79;100772.81;5066816;28;20033;-50
2022/08/14 09:59:41;;;;;;;7.15;6.22;;;;;;;37.99;50.85;100773.78;5067535;28;20034;-49
2022/08/14 10:02:24;;;;;;;10.32;7.32;;;;;;;38.36;47.01;100765.63;5069968;28;20029;-46
2022/08/14 10:05:05;;;;;;;9.05;7.72;;;;;;;38.85;46.50;100758.72;5076013;28;20057;-47
2022/08/14 10:07:51;;;;;;;11.35;6.00;;;;;;;39.23;45.52;100758.47;5067010;28;20034;-48
2022/08/14 10:10:37;;;;;;;7.88;5.85;;;;;;;39.27;43.42;100764.06;5066537;28;20046;-48
2022/08/14 10:13:05;;;;;;;8.43;5.70;;;;;;;39.61;43.15;100757.34;5064229;28;20100;-49
2022/08/14 10:15:36;;;;;;;8.50;5.72;;;;;;;39.97;42.04;100757.38;5065528;28;20092;-48
2022/08/14 10:18:10;;;;;;;8.25;5.57;;;;;;;40.15;41.24;100755.34;5069333;28;20072;-46
2022/08/14 10:20:56;;;;;;;10.48;5.28;;;;;;;40.40;39.78;100759.31;5067756;28;20055;-54
2022/08/14 10:23:24;;;;;;;10.18;6.57;;;;;;;40.75;39.13;100751.22;5071315;28;20092;-49
2022/08/14 10:26:04;;;;;;;12.88;7.38;;;;;;;40.96;38.61;100739.91;5074946;28;20044;-48
2022/08/14 10:28:41;;;;;;;8.13;4.95;;;;;;;41.49;37.64;100750.41;5066040;28;20033;-47
2022/08/14 10:31:30;;;;;;;10.93;5.35;;;;;;;41.81;36.57;100738.94;5066622;28;20063;-47
2022/08/14 10:34:08;;;;;;;9.23;4.32;;;;;;;42.33;36.09;100744.84;5060898;28;20044;-47
2022/08/14 10:36:43;;;;;;;10.20;4.70;;;;;;;42.39;34.66;100743.97;5064907;28;20060;-47
2022/08/14 10:39:18;;;;;;;5.45;3.90;;;;;;;42.76;34.11;100740.75;5067489;28;20041;-48
2022/08/14 10:41:44;;;;;;;11.35;4.47;;;;;;;42.47;34.15;100730.66;5076095;28;20032;-51
2022/08/14 10:44:13;;;;;;;7.30;4.10;;;;;;;42.83;33.54;100732.22;5068222;28;20152;-49
2022/08/14 10:46:51;;;;;;;6.20;4.40;;;;;;;43.45;33.27;100720.91;5073789;28;20057;-50
2022/08/14 10:49:22;;;;;;;7.82;4.55;;;;;;;43.82;32.05;100726.72;5069792;28;20025;-53
2022/08/14 10:52:10;;;;;;;5.47;4.18;;;;;;;44.20;31.09;100722.81;5077118;28;20045;-51
2022/08/14 10:54:40;;;;;;;11.73;3.72;;;;;;;43.99;30.75;100716.34;5074878;28;20036;-49
2022/08/14 10:57:26;;;;;;;6.53;3.88;;;;;;;44.53;29.63;100711.72;5069403;28;20054;-46
2022/08/14 11:00:13;;;;;;;9.15;3.75;;;;;;;44.29;29.55;100708.94;5069394;28;20047;-47
2022/08/14 11:02:40;;;;;;;5.88;3.95;;;;;;;44.81;29.22;100712.31;5070452;28;20036;-52
2022/08/14 11:05:11;;;;;;;8.45;3.78;;;;;;;44.02;29.42;100700.63;5072561;28;20039;-48
2022/08/14 11:07:39;;;;;;;6.82;3.15;;;;;;;44.57;28.66;100701.16;5076030;28;20040;-53
2022/08/14 11:10:14;;;;;;;6.78;2.85;;;;;;;44.61;28.25;100706.69;5069771;28;20311;-50
2022/08/14 11:12:48;;;;;;;11.00;3.90;;;;;;;44.80;27.37;100705.84;5076753;28;20041;-52
2022/08/14 11:15:26;;;;;;;4.50;3.30;;;;;;;44.84;26.94;100703.75;5076052;28;20025;-49
2022/08/14 11:17:53;;;;;;;6.55;3.63;;;;;;;45.59;25.83;100698.78;5083753;28;20028;-53
2022/08/14 11:20:21;;;;;;;6.65;3.20;;;;;;;45.87;25.52;100700.06;5078323;28;20033;-50
2022/08/14 11:22:51;;;;;;;10.65;3.17;;;;;;;46.31;25.34;100702.47;5075354;28;20029;-50
2022/08/14 11:25:19;;;;;;;3.83;3.08;;;;;;;46.66;24.98;100716.00;5081825;28;20021;-51
2022/08/14 11:27:45;;;;;;;5.78;3.25;;;;;;;47.01;24.50;100702.03;5074108;28;20032;-48
2022/08/14 11:30:18;;;;;;;5.95;3.25;;;;;;;47.27;24.49;100698.34;5078628;28;20029;-50
2022/08/14 11:32:49;;;;;;;7.90;3.42;;;;;;;46.99;22.80;100698.06;5076992;28;20029;-51
2022/08/14 11:35:18;;;;;;;3.22;2.40;;;;;;;47.33;22.92;100693.75;5084480;28;20031;-51
2022/08/14 11:37:58;;;;;;;4.50;3.28;;;;;;;46.10;24.15;100701.06;5085053;28;20040;-51
2022/08/14 11:40:33;;;;;;;5.95;3.10;;;;;;;44.80;24.36;100697.41;5081469;28;20028;-49